createdAt,value
2022-07-31T00:00:31.653Z,14.97
2022-07-31T00:01:34.976Z,14.96
2022-07-31T00:02:38.268Z,14.97
2022-07-31T00:03:41.107Z,14.96
2022-07-31T00:04:44.233Z,14.94
2022-07-31T00:05:46.990Z,14.95
2022-07-31T00:06:50.273Z,14.94
2022-07-31T00:07:52.841Z,14.92
2022-07-31T00:08:55.410Z,14.93
2022-07-31T00:09:57.977Z,14.93
2022-07-31T00:11:01.153Z,14.92
2022-07-31T00:12:04.438Z,14.91
2022-07-31T00:13:07.008Z,14.93
2022-07-31T00:14:09.680Z,14.92
2022-07-31T00:15:12.346Z,14.92
2022-07-31T00:16:17.294Z,14.93
2022-07-31T00:17:20.206Z,14.94
2022-07-31T00:18:22.808Z,14.94
2022-07-31T00:19:25.484Z,14.93
2022-07-31T00:20:29.995Z,14.92
2022-07-31T00:21:32.658Z,14.89
2022-07-31T00:22:35.745Z,14.90
2022-07-31T00:23:38.746Z,14.89
2022-07-31T00:24:41.408Z,14.89
2022-07-31T00:25:43.951Z,14.89
2022-07-31T00:26:46.684Z,14.88
2022-07-31T00:27:51.240Z,14.87
2022-07-31T00:28:53.907Z,14.86
2022-07-31T00:29:56.596Z,14.83
2022-07-31T00:30:59.402Z,14.83
2022-07-31T00:32:02.026Z,14.82
2022-07-31T00:33:04.639Z,14.82
2022-07-31T00:34:07.252Z,14.80
2022-07-31T00:35:10.021Z,14.79
2022-07-31T00:36:16.272Z,14.79
2022-07-31T00:37:18.901Z,14.78
2022-07-31T00:38:28.579Z,14.77
2022-07-31T00:39:26.030Z,14.77
2022-07-31T00:40:29.099Z,14.77
2022-07-31T00:41:31.766Z,14.75
2022-07-31T00:42:34.341Z,14.74
2022-07-31T00:43:37.015Z,14.73
2022-07-31T00:44:39.552Z,14.71
2022-07-31T00:45:42.144Z,14.69
2022-07-31T00:46:46.852Z,14.68
2022-07-31T00:47:49.428Z,14.68
2022-07-31T00:48:53.821Z,14.67
2022-07-31T00:49:56.604Z,14.65
2022-07-31T00:50:59.515Z,14.63
2022-07-31T00:52:02.145Z,14.61
2022-07-31T00:53:04.711Z,14.60
2022-07-31T00:54:07.447Z,14.59
2022-07-31T00:55:10.053Z,14.58
2022-07-31T00:56:14.564Z,14.59
2022-07-31T00:57:17.042Z,14.58
2022-07-31T00:58:19.638Z,14.58
2022-07-31T00:59:24.866Z,14.59
2022-07-31T01:00:27.815Z,14.57
2022-07-31T01:01:30.772Z,14.56
2022-07-31T01:02:33.447Z,14.54
2022-07-31T01:03:36.013Z,14.52
2022-07-31T01:04:41.714Z,14.51
2022-07-31T01:05:43.190Z,14.52
2022-07-31T01:06:45.965Z,14.50
2022-07-31T01:07:48.532Z,14.49
2022-07-31T01:08:51.100Z,14.48
2022-07-31T01:09:54.897Z,14.46
2022-07-31T01:10:58.179Z,14.45
2022-07-31T01:12:00.851Z,14.44
2022-07-31T01:13:03.623Z,14.44
2022-07-31T01:14:06.183Z,14.42
2022-07-31T01:15:08.754Z,14.40
2022-07-31T01:16:11.832Z,14.38
2022-07-31T01:17:14.356Z,14.37
2022-07-31T01:18:16.986Z,14.36
2022-07-31T01:19:19.657Z,14.35
2022-07-31T01:20:24.045Z,14.34
2022-07-31T01:21:27.023Z,14.34
2022-07-31T01:22:33.338Z,14.33
2022-07-31T01:23:34.105Z,14.32
2022-07-31T01:24:36.667Z,14.32
2022-07-31T01:25:39.345Z,14.29
2022-07-31T01:26:42.215Z,14.26
2022-07-31T01:27:49.536Z,14.25
2022-07-31T01:28:49.257Z,14.25
2022-07-31T01:29:51.863Z,14.24
2022-07-31T01:31:10.707Z,14.25
2022-07-31T01:31:59.244Z,14.24
2022-07-31T01:33:01.935Z,14.23
2022-07-31T01:34:04.479Z,14.21
2022-07-31T01:35:07.046Z,14.19
2022-07-31T01:36:10.538Z,14.18
2022-07-31T01:37:13.102Z,14.18
2022-07-31T01:38:15.671Z,14.18
2022-07-31T01:39:18.235Z,14.19
2022-07-31T01:40:21.838Z,14.20
2022-07-31T01:41:24.455Z,14.20
2022-07-31T01:42:27.479Z,14.20
2022-07-31T01:43:30.151Z,14.18
2022-07-31T01:44:32.815Z,14.17
2022-07-31T01:45:35.380Z,14.14
2022-07-31T01:46:41.581Z,14.16
2022-07-31T01:47:42.726Z,14.16
2022-07-31T01:48:45.791Z,14.13
2022-07-31T01:49:48.620Z,14.13
2022-07-31T01:50:51.600Z,14.12
2022-07-31T01:51:54.883Z,14.11
2022-07-31T01:52:58.776Z,14.11
2022-07-31T01:54:01.371Z,14.12
2022-07-31T01:55:04.332Z,14.11
2022-07-31T01:56:07.086Z,14.11
2022-07-31T01:57:09.763Z,14.12
2022-07-31T01:58:12.323Z,14.11
2022-07-31T01:59:20.538Z,14.10
2022-07-31T02:00:34.402Z,14.10
2022-07-31T02:01:27.383Z,14.09
2022-07-31T02:02:30.483Z,14.08
2022-07-31T02:03:42.864Z,14.10
2022-07-31T02:04:37.970Z,14.10
2022-07-31T02:05:40.682Z,14.11
2022-07-31T02:06:43.515Z,14.11
2022-07-31T02:07:46.072Z,14.12
2022-07-31T02:08:48.611Z,14.12
2022-07-31T02:09:57.873Z,14.11
2022-07-31T02:10:56.028Z,14.12
2022-07-31T02:11:58.527Z,14.09
2022-07-31T02:13:01.060Z,14.10
2022-07-31T02:14:03.629Z,14.17
2022-07-31T02:15:06.296Z,14.26
2022-07-31T02:16:10.561Z,14.35
2022-07-31T02:17:13.038Z,14.45
2022-07-31T02:18:17.539Z,14.59
2022-07-31T02:19:20.163Z,14.78
2022-07-31T02:20:24.627Z,15.02
2022-07-31T02:21:27.429Z,15.22
2022-07-31T02:22:30.411Z,15.44
2022-07-31T02:23:33.039Z,15.70
2022-07-31T02:24:35.643Z,15.93
2022-07-31T02:25:38.212Z,16.18
2022-07-31T02:26:41.057Z,16.35
2022-07-31T02:27:57.460Z,16.48
2022-07-31T02:28:48.175Z,16.64
2022-07-31T02:29:50.799Z,16.93
2022-07-31T02:30:53.605Z,17.23
2022-07-31T02:32:01.876Z,17.51
2022-07-31T02:33:00.587Z,17.78
2022-07-31T02:34:03.253Z,17.99
2022-07-31T02:35:05.819Z,18.11
2022-07-31T02:36:09.202Z,18.27
2022-07-31T02:37:11.783Z,18.53
2022-07-31T02:38:17.142Z,18.85
2022-07-31T02:39:18.851Z,19.15
2022-07-31T02:40:23.159Z,19.44
2022-07-31T02:41:26.134Z,19.71
2022-07-31T02:42:29.417Z,19.96
2022-07-31T02:43:32.353Z,20.22
2022-07-31T02:44:35.046Z,20.47
2022-07-31T02:45:37.708Z,20.70
2022-07-31T02:46:40.707Z,20.90
2022-07-31T02:47:43.314Z,21.08
2022-07-31T02:48:45.841Z,21.25
2022-07-31T02:49:48.718Z,21.39
2022-07-31T02:50:51.650Z,21.52
2022-07-31T02:51:54.469Z,21.67
2022-07-31T02:52:57.646Z,21.82
2022-07-31T02:54:00.212Z,21.98
2022-07-31T02:55:03.092Z,22.14
2022-07-31T02:56:05.964Z,22.28
2022-07-31T02:57:08.614Z,22.39
2022-07-31T02:58:11.164Z,22.49
2022-07-31T02:59:13.763Z,22.55
2022-07-31T03:00:17.272Z,22.59
2022-07-31T03:01:20.259Z,22.66
2022-07-31T03:02:22.879Z,22.71
2022-07-31T03:03:27.391Z,22.69
2022-07-31T03:04:30.208Z,22.53
2022-07-31T03:05:32.786Z,22.40
2022-07-31T03:07:38.311Z,22.13
2022-07-31T03:08:41.276Z,22.00
2022-07-31T03:09:43.833Z,21.90
2022-07-31T03:10:46.709Z,21.72
2022-07-31T03:11:49.290Z,21.52
2022-07-31T03:12:51.984Z,21.34
2022-07-31T03:13:54.476Z,21.25
2022-07-31T03:14:57.284Z,21.18
2022-07-31T03:16:00.077Z,21.04
2022-07-31T03:17:02.724Z,20.89
2022-07-31T03:18:11.137Z,20.73
2022-07-31T03:19:09.827Z,20.66
2022-07-31T03:20:13.191Z,20.57
2022-07-31T03:21:16.173Z,20.46
2022-07-31T03:22:19.452Z,20.35
2022-07-31T03:23:22.119Z,20.20
2022-07-31T03:24:24.788Z,20.14
2022-07-31T03:25:27.356Z,20.16
2022-07-31T03:26:31.052Z,20.05
2022-07-31T03:27:35.564Z,20.00
2022-07-31T03:28:38.140Z,19.97
2022-07-31T03:29:43.253Z,19.96
2022-07-31T03:30:45.412Z,19.97
2022-07-31T03:31:47.981Z,19.89
2022-07-31T03:32:50.655Z,19.77
2022-07-31T03:33:53.623Z,19.58
2022-07-31T03:34:56.149Z,19.60
2022-07-31T03:35:58.784Z,19.56
2022-07-31T03:37:01.695Z,19.50
2022-07-31T03:38:39.684Z,19.45
2022-07-31T03:39:08.811Z,19.40
2022-07-31T03:40:12.248Z,19.26
2022-07-31T03:41:15.380Z,19.16
2022-07-31T03:42:18.842Z,19.11
2022-07-31T03:43:22.053Z,19.06
2022-07-31T03:44:24.617Z,19.01
2022-07-31T03:45:27.184Z,19.00
2022-07-31T03:46:30.368Z,19.02
2022-07-31T03:47:32.934Z,19.02
2022-07-31T03:48:35.601Z,19.04
2022-07-31T03:49:38.284Z,19.09
2022-07-31T03:50:41.386Z,19.14
2022-07-31T03:51:43.919Z,19.19
2022-07-31T03:52:46.444Z,19.23
2022-07-31T03:53:49.052Z,19.30
2022-07-31T03:54:51.621Z,19.38
2022-07-31T03:55:54.184Z,19.42
2022-07-31T03:56:57.372Z,19.48
2022-07-31T03:58:00.037Z,19.52
2022-07-31T03:59:02.611Z,19.55
2022-07-31T04:00:07.913Z,19.61
2022-07-31T04:01:12.344Z,19.61
2022-07-31T04:02:17.172Z,19.52
2022-07-31T04:03:19.836Z,19.56
2022-07-31T04:04:22.539Z,19.56
2022-07-31T04:05:25.184Z,19.64
2022-07-31T04:06:29.694Z,19.73
2022-07-31T04:07:33.332Z,19.81
2022-07-31T04:08:35.941Z,19.82
2022-07-31T04:09:38.601Z,19.94
2022-07-31T04:10:41.395Z,20.02
2022-07-31T04:11:43.908Z,20.12
2022-07-31T04:12:46.515Z,20.22
2022-07-31T04:13:49.084Z,20.33
2022-07-31T04:14:51.656Z,20.41
2022-07-31T04:15:54.323Z,20.50
2022-07-31T04:16:57.296Z,20.59
2022-07-31T04:17:59.866Z,20.72
2022-07-31T04:19:02.633Z,20.70
2022-07-31T04:20:05.879Z,20.82
2022-07-31T04:21:09.191Z,20.93
2022-07-31T04:22:11.772Z,21.01
2022-07-31T04:23:14.540Z,21.05
2022-07-31T04:24:17.516Z,21.15
2022-07-31T04:25:20.107Z,21.24
2022-07-31T04:26:26.258Z,21.34
2022-07-31T04:27:28.085Z,21.46
2022-07-31T04:28:30.654Z,21.59
2022-07-31T04:29:33.331Z,21.59
2022-07-31T04:30:37.806Z,21.52
2022-07-31T04:31:40.417Z,21.68
2022-07-31T04:32:43.069Z,21.64
2022-07-31T04:33:47.939Z,21.65
2022-07-31T04:34:50.155Z,21.69
2022-07-31T04:35:52.718Z,21.79
2022-07-31T04:38:05.733Z,22.08
2022-07-31T04:39:08.403Z,22.05
2022-07-31T04:40:11.992Z,22.06
2022-07-31T04:41:14.853Z,22.09
2022-07-31T04:42:17.717Z,22.20
2022-07-31T04:43:20.312Z,22.27
2022-07-31T04:44:22.880Z,22.48
2022-07-31T04:45:25.402Z,22.60
2022-07-31T04:46:29.879Z,22.72
2022-07-31T04:47:32.420Z,22.80
2022-07-31T04:48:35.045Z,22.88
2022-07-31T04:49:39.909Z,23.07
2022-07-31T04:50:42.872Z,23.08
2022-07-31T04:51:45.452Z,23.08
2022-07-31T04:52:48.020Z,23.21
2022-07-31T04:53:50.593Z,23.22
2022-07-31T04:54:53.265Z,23.38
2022-07-31T04:55:56.044Z,23.38
2022-07-31T04:57:00.543Z,23.51
2022-07-31T04:58:03.232Z,23.64
2022-07-31T04:59:05.893Z,23.75
2022-07-31T05:00:09.409Z,23.87
2022-07-31T05:01:12.430Z,24.02
2022-07-31T05:02:16.857Z,24.09
2022-07-31T05:03:19.641Z,24.14
2022-07-31T05:04:22.254Z,24.32
2022-07-31T05:05:25.172Z,24.43
2022-07-31T05:06:29.480Z,24.56
2022-07-31T05:07:32.143Z,24.65
2022-07-31T05:08:34.673Z,24.65
2022-07-31T05:09:37.224Z,24.75
2022-07-31T05:10:40.626Z,24.81
2022-07-31T05:11:43.232Z,24.85
2022-07-31T05:12:45.900Z,24.88
2022-07-31T05:13:48.468Z,24.99
2022-07-31T05:14:50.999Z,25.12
2022-07-31T05:15:53.604Z,24.99
2022-07-31T05:16:56.481Z,25.23
2022-07-31T05:17:59.247Z,25.41
2022-07-31T05:19:01.830Z,25.60
2022-07-31T05:20:04.794Z,25.81
2022-07-31T05:21:07.357Z,25.88
2022-07-31T05:22:10.494Z,25.87
2022-07-31T05:23:13.927Z,25.94
2022-07-31T05:24:16.492Z,26.02
2022-07-31T05:25:21.003Z,26.06
2022-07-31T05:26:25.416Z,26.11
2022-07-31T05:27:32.069Z,26.27
2022-07-31T05:28:32.555Z,26.27
2022-07-31T05:29:35.165Z,26.44
2022-07-31T05:30:38.553Z,26.60
2022-07-31T05:31:41.131Z,26.71
2022-07-31T05:32:45.656Z,26.87
2022-07-31T05:33:48.201Z,27.05
2022-07-31T05:34:50.731Z,27.22
2022-07-31T05:35:54.049Z,27.37
2022-07-31T05:36:57.026Z,27.42
2022-07-31T05:37:59.653Z,27.28
2022-07-31T05:39:02.215Z,27.34
2022-07-31T05:40:05.953Z,27.35
2022-07-31T05:41:09.131Z,27.25
2022-07-31T05:42:12.522Z,27.05
2022-07-31T05:43:15.454Z,26.79
2022-07-31T05:44:18.164Z,26.68
2022-07-31T05:45:20.733Z,26.61
2022-07-31T05:46:25.036Z,26.45
2022-07-31T05:47:40.680Z,26.43
2022-07-31T05:48:32.120Z,26.62
2022-07-31T05:49:34.780Z,26.80
2022-07-31T05:50:37.563Z,26.84
2022-07-31T05:51:40.201Z,26.68
2022-07-31T05:52:42.807Z,26.67
2022-07-31T05:53:45.879Z,26.82
2022-07-31T05:54:48.848Z,26.95
2022-07-31T05:55:51.428Z,27.04
2022-07-31T05:56:54.187Z,27.16
2022-07-31T05:57:56.781Z,27.15
2022-07-31T05:58:59.320Z,27.31
2022-07-31T06:00:03.880Z,27.53
2022-07-31T06:01:06.436Z,27.69
2022-07-31T06:02:09.453Z,27.69
2022-07-31T06:03:12.663Z,27.72
2022-07-31T06:04:15.332Z,27.73
2022-07-31T06:05:17.858Z,27.70
2022-07-31T06:06:21.003Z,27.80
2022-07-31T06:07:23.549Z,27.69
2022-07-31T06:08:26.361Z,27.57
2022-07-31T06:09:28.984Z,27.74
2022-07-31T06:10:32.273Z,27.67
2022-07-31T06:11:34.895Z,27.79
2022-07-31T06:12:37.504Z,27.63
2022-07-31T06:13:40.067Z,27.46
2022-07-31T06:14:42.638Z,27.62
2022-07-31T06:15:49.458Z,27.67
2022-07-31T06:16:50.138Z,27.73
2022-07-31T06:17:52.796Z,27.89
2022-07-31T06:18:55.464Z,28.01
2022-07-31T06:19:58.137Z,27.76
2022-07-31T06:21:00.970Z,27.83
2022-07-31T06:22:04.032Z,28.00
2022-07-31T06:23:22.448Z,27.80
2022-07-31T06:24:11.535Z,27.95
2022-07-31T06:25:16.093Z,27.98
2022-07-31T06:26:20.495Z,27.78
2022-07-31T06:27:33.794Z,27.59
2022-07-31T06:28:44.752Z,27.96
2022-07-31T06:29:40.987Z,28.04
2022-07-31T06:30:39.584Z,28.05
2022-07-31T06:31:42.239Z,28.26
2022-07-31T06:32:44.807Z,28.37
2022-07-31T06:33:48.437Z,28.32
2022-07-31T06:34:51.479Z,28.07
2022-07-31T06:35:54.049Z,28.16
2022-07-31T06:36:57.020Z,28.28
2022-07-31T06:37:59.710Z,28.50
2022-07-31T06:39:02.258Z,28.56
2022-07-31T06:40:05.132Z,28.69
2022-07-31T06:41:07.800Z,28.92
2022-07-31T06:42:10.368Z,28.83
2022-07-31T06:43:12.932Z,27.98
2022-07-31T06:44:15.809Z,28.26
2022-07-31T06:45:35.530Z,28.35
2022-07-31T06:46:23.421Z,28.61
2022-07-31T06:47:26.482Z,28.75
2022-07-31T06:48:29.148Z,28.55
2022-07-31T06:49:31.727Z,28.69
2022-07-31T06:50:35.508Z,28.82
2022-07-31T06:51:38.079Z,28.94
2022-07-31T06:52:40.643Z,28.99
2022-07-31T06:53:43.320Z,28.81
2022-07-31T06:54:45.879Z,28.47
2022-07-31T06:55:48.446Z,28.31
2022-07-31T06:56:51.216Z,28.36
2022-07-31T06:57:53.782Z,28.00
2022-07-31T06:58:56.355Z,28.12
2022-07-31T06:59:59.018Z,28.02
2022-07-31T07:01:01.986Z,27.88
2022-07-31T07:02:05.221Z,28.08
2022-07-31T07:03:08.068Z,28.18
2022-07-31T07:04:10.927Z,28.29
2022-07-31T07:05:13.492Z,28.06
2022-07-31T07:06:16.779Z,28.12
2022-07-31T07:07:19.352Z,28.31
2022-07-31T07:08:21.867Z,27.97
2022-07-31T07:09:24.476Z,28.05
2022-07-31T07:10:27.759Z,28.15
2022-07-31T07:11:30.325Z,28.29
2022-07-31T07:12:32.894Z,28.26
2022-07-31T07:13:45.263Z,28.49
2022-07-31T07:14:41.815Z,28.72
2022-07-31T07:15:44.507Z,29.02
2022-07-31T07:16:47.157Z,29.11
2022-07-31T07:17:49.739Z,28.61
2022-07-31T07:18:52.410Z,28.93
2022-07-31T07:19:55.849Z,29.05
2022-07-31T07:20:59.100Z,29.39
2022-07-31T07:22:02.406Z,29.50
2022-07-31T07:23:05.533Z,29.49
2022-07-31T07:24:08.153Z,29.69
2022-07-31T07:25:10.721Z,29.72
2022-07-31T07:26:13.742Z,29.62
2022-07-31T07:27:16.411Z,29.36
2022-07-31T07:28:30.582Z,28.41
2022-07-31T07:29:23.489Z,28.67
2022-07-31T07:30:27.900Z,28.99
2022-07-31T07:31:30.487Z,29.07
2022-07-31T07:32:33.031Z,28.74
2022-07-31T07:33:41.044Z,29.05
2022-07-31T07:34:40.111Z,29.17
2022-07-31T07:35:42.679Z,29.43
2022-07-31T07:36:45.553Z,29.63
2022-07-31T07:37:48.134Z,29.94
2022-07-31T07:38:50.835Z,30.13
2022-07-31T07:39:54.176Z,30.37
2022-07-31T07:40:57.156Z,30.41
2022-07-31T07:41:59.729Z,30.18
2022-07-31T07:43:03.369Z,30.45
2022-07-31T07:44:06.085Z,30.56
2022-07-31T07:45:08.649Z,30.50
2022-07-31T07:46:11.759Z,29.98
2022-07-31T07:47:14.297Z,30.05
2022-07-31T07:48:16.862Z,30.34
2022-07-31T07:49:20.066Z,30.56
2022-07-31T07:50:26.771Z,30.74
2022-07-31T07:51:28.149Z,30.58
2022-07-31T07:52:30.817Z,30.67
2022-07-31T07:53:33.383Z,30.67
2022-07-31T07:54:35.893Z,30.86
2022-07-31T07:55:38.474Z,30.63
2022-07-31T07:56:41.508Z,30.46
2022-07-31T07:57:44.168Z,30.06
2022-07-31T07:58:46.791Z,30.08
2022-07-31T07:59:49.621Z,30.09
2022-07-31T08:00:52.531Z,29.87
2022-07-31T08:01:55.449Z,29.66
2022-07-31T08:03:47.071Z,29.78
2022-07-31T08:04:02.500Z,29.95
2022-07-31T08:05:05.012Z,30.04
2022-07-31T08:06:08.284Z,29.97
2022-07-31T08:07:12.788Z,29.89
2022-07-31T08:08:15.355Z,29.92
2022-07-31T08:09:17.936Z,30.03
2022-07-31T08:10:22.343Z,30.17
2022-07-31T08:11:24.900Z,30.37
2022-07-31T08:12:27.477Z,30.64
2022-07-31T08:13:30.047Z,30.92
2022-07-31T08:14:32.611Z,31.07
2022-07-31T08:15:35.269Z,31.41
2022-07-31T08:16:38.039Z,31.82
2022-07-31T08:17:40.621Z,31.91
2022-07-31T08:18:44.976Z,32.25
2022-07-31T08:19:51.167Z,32.01
2022-07-31T08:20:52.096Z,32.16
2022-07-31T08:21:54.983Z,32.42
2022-07-31T08:22:58.048Z,32.17
2022-07-31T08:24:01.025Z,32.05
2022-07-31T08:25:05.329Z,32.34
2022-07-31T08:26:09.460Z,32.06
2022-07-31T08:27:12.154Z,32.10
2022-07-31T08:28:19.298Z,32.26
2022-07-31T08:29:26.541Z,32.35
2022-07-31T08:30:30.700Z,32.73
2022-07-31T08:31:30.682Z,32.57
2022-07-31T08:32:33.241Z,32.63
2022-07-31T08:33:35.863Z,31.91
2022-07-31T08:34:41.840Z,32.39
2022-07-31T08:35:44.800Z,32.07
2022-07-31T08:36:47.722Z,32.12
2022-07-31T08:37:52.310Z,32.19
2022-07-31T08:38:54.782Z,31.64
2022-07-31T08:39:57.346Z,32.00
2022-07-31T08:41:00.325Z,32.25
2022-07-31T08:42:04.146Z,32.05
2022-07-31T08:43:07.466Z,31.39
2022-07-31T08:44:12.019Z,31.40
2022-07-31T08:45:14.543Z,31.35
2022-07-31T08:46:17.625Z,31.31
2022-07-31T08:47:20.235Z,31.35
2022-07-31T08:48:22.903Z,31.15
2022-07-31T08:49:25.529Z,31.55
2022-07-31T08:50:30.182Z,31.57
2022-07-31T08:51:34.493Z,31.50
2022-07-31T08:52:38.903Z,31.67
2022-07-31T08:53:41.471Z,32.01
2022-07-31T08:54:44.042Z,31.88
2022-07-31T08:55:55.082Z,31.70
2022-07-31T08:56:51.451Z,31.18
2022-07-31T08:57:54.360Z,31.40
2022-07-31T08:58:56.968Z,31.45
2022-07-31T08:59:59.642Z,31.80
2022-07-31T09:01:02.373Z,32.03
2022-07-31T09:02:05.640Z,31.75
2022-07-31T09:03:08.674Z,31.07
2022-07-31T09:04:11.189Z,31.27
2022-07-31T09:05:13.909Z,31.45
2022-07-31T09:06:18.312Z,30.58
2022-07-31T09:07:20.902Z,30.31
2022-07-31T09:08:23.865Z,30.66
2022-07-31T09:09:50.771Z,30.38
2022-07-31T09:10:31.751Z,30.71
2022-07-31T09:11:34.428Z,31.13
2022-07-31T09:12:37.016Z,31.24
2022-07-31T09:13:39.559Z,31.52
2022-07-31T09:14:42.124Z,32.01
2022-07-31T09:15:44.810Z,32.15
2022-07-31T09:16:47.727Z,31.99
2022-07-31T09:17:51.944Z,32.11
2022-07-31T09:18:54.856Z,32.16
2022-07-31T09:19:57.520Z,32.26
2022-07-31T09:21:00.536Z,31.89
2022-07-31T09:22:10.148Z,31.79
2022-07-31T09:23:09.519Z,31.74
2022-07-31T09:24:12.189Z,32.19
2022-07-31T09:25:14.856Z,31.84
2022-07-31T09:26:19.295Z,32.32
2022-07-31T09:27:21.935Z,32.71
2022-07-31T09:28:25.283Z,32.34
2022-07-31T09:29:27.991Z,32.14
2022-07-31T09:30:31.277Z,32.06
2022-07-31T09:31:33.907Z,32.26
2022-07-31T09:32:36.511Z,32.52
2022-07-31T09:33:43.672Z,32.98
2022-07-31T09:34:43.727Z,32.94
2022-07-31T09:35:46.260Z,33.07
2022-07-31T09:36:49.132Z,32.87
2022-07-31T09:37:51.904Z,32.38
2022-07-31T09:38:54.471Z,31.78
2022-07-31T09:39:57.186Z,31.93
2022-07-31T09:41:00.628Z,31.73
2022-07-31T09:42:16.463Z,31.61
2022-07-31T09:43:09.657Z,31.56
2022-07-31T09:44:12.737Z,30.92
2022-07-31T09:45:15.407Z,31.06
2022-07-31T09:46:18.576Z,31.00
2022-07-31T09:47:21.251Z,31.05
2022-07-31T09:48:26.260Z,31.50
2022-07-31T09:49:28.374Z,31.62
2022-07-31T09:50:32.337Z,31.49
2022-07-31T09:51:35.001Z,31.74
2022-07-31T09:52:37.689Z,32.05
2022-07-31T09:53:43.351Z,32.00
2022-07-31T09:54:44.811Z,31.66
2022-07-31T09:55:47.623Z,31.69
2022-07-31T09:56:50.404Z,31.69
2022-07-31T09:57:53.232Z,31.45
2022-07-31T09:58:55.839Z,31.90
2022-07-31T09:59:58.361Z,32.19
2022-07-31T10:01:01.306Z,32.05
2022-07-31T10:02:04.260Z,32.01
2022-07-31T10:03:07.233Z,31.76
2022-07-31T10:04:09.900Z,32.20
2022-07-31T10:05:12.473Z,32.67
2022-07-31T10:06:16.647Z,32.82
2022-07-31T10:07:32.004Z,32.99
2022-07-31T10:08:23.956Z,33.38
2022-07-31T10:09:26.481Z,33.87
2022-07-31T10:10:29.911Z,33.84
2022-07-31T10:11:32.579Z,34.08
2022-07-31T10:12:35.150Z,33.73
2022-07-31T10:13:42.352Z,33.82
2022-07-31T10:14:42.428Z,33.49
2022-07-31T10:15:45.059Z,33.22
2022-07-31T10:16:48.047Z,33.31
2022-07-31T10:17:50.727Z,33.46
2022-07-31T10:18:53.312Z,33.09
2022-07-31T10:19:55.880Z,33.29
2022-07-31T10:20:59.066Z,33.73
2022-07-31T10:22:03.777Z,33.74
2022-07-31T10:23:06.552Z,32.98
2022-07-31T10:24:09.484Z,32.66
2022-07-31T10:25:12.236Z,32.42
2022-07-31T10:26:16.099Z,32.51
2022-07-31T10:27:18.777Z,32.68
2022-07-31T10:28:22.308Z,32.79
2022-07-31T10:29:24.919Z,33.20
2022-07-31T10:30:28.777Z,33.25
2022-07-31T10:31:31.592Z,32.90
2022-07-31T10:32:34.121Z,33.26
2022-07-31T10:33:44.991Z,33.40
2022-07-31T10:34:41.256Z,32.77
2022-07-31T10:35:43.834Z,31.98
2022-07-31T10:36:48.668Z,32.09
2022-07-31T10:37:51.402Z,32.39
2022-07-31T10:38:54.062Z,32.50
2022-07-31T10:39:56.744Z,32.73
2022-07-31T10:40:59.616Z,33.01
2022-07-31T10:42:02.283Z,33.02
2022-07-31T10:43:05.357Z,33.11
2022-07-31T10:44:07.938Z,32.73
2022-07-31T10:45:10.694Z,32.75
2022-07-31T10:46:13.463Z,33.07
2022-07-31T10:47:16.240Z,33.45
2022-07-31T10:48:18.904Z,33.24
2022-07-31T10:49:21.519Z,33.50
2022-07-31T10:50:24.407Z,33.88
2022-07-31T10:51:26.972Z,33.95
2022-07-31T10:52:29.481Z,33.41
2022-07-31T10:53:50.311Z,33.26
2022-07-31T10:54:36.564Z,32.76
2022-07-31T10:55:39.187Z,33.09
2022-07-31T10:56:42.717Z,33.11
2022-07-31T10:57:56.290Z,33.67
2022-07-31T10:58:49.796Z,33.94
2022-07-31T10:59:52.364Z,34.13
2022-07-31T11:00:55.258Z,34.29
2022-07-31T11:01:58.419Z,34.14
2022-07-31T11:03:01.495Z,34.56
2022-07-31T11:04:04.498Z,34.10
2022-07-31T11:05:07.140Z,33.70
2022-07-31T11:06:10.392Z,33.62
2022-07-31T11:07:12.993Z,33.80
2022-07-31T11:08:15.518Z,33.69
2022-07-31T11:09:18.129Z,33.43
2022-07-31T11:10:21.718Z,33.22
2022-07-31T11:11:26.255Z,32.72
2022-07-31T11:12:28.800Z,32.20
2022-07-31T11:13:34.124Z,31.90
2022-07-31T11:14:36.003Z,31.61
2022-07-31T11:15:38.477Z,31.28
2022-07-31T11:16:42.138Z,31.41
2022-07-31T11:18:25.332Z,31.47
2022-07-31T11:18:49.334Z,31.41
2022-07-31T11:19:51.918Z,31.63
2022-07-31T11:20:54.868Z,31.35
2022-07-31T11:21:58.147Z,31.79
2022-07-31T11:23:02.603Z,32.27
2022-07-31T11:24:08.706Z,32.63
2022-07-31T11:25:09.535Z,32.96
2022-07-31T11:26:13.119Z,33.12
2022-07-31T11:27:15.687Z,32.18
2022-07-31T11:28:18.356Z,31.80
2022-07-31T11:30:02.079Z,32.26
2022-07-31T11:30:27.381Z,32.37
2022-07-31T11:31:29.983Z,32.33
2022-07-31T11:32:32.477Z,32.15
2022-07-31T11:33:41.906Z,31.30
2022-07-31T11:34:39.903Z,31.17
2022-07-31T11:35:42.476Z,31.13
2022-07-31T11:36:50.726Z,30.84
2022-07-31T11:37:57.949Z,31.15
2022-07-31T11:38:54.369Z,30.88
2022-07-31T11:39:56.935Z,30.91
2022-07-31T11:41:00.016Z,31.15
2022-07-31T11:42:03.299Z,31.24
2022-07-31T11:43:25.411Z,31.54
2022-07-31T11:44:10.786Z,32.02
2022-07-31T11:45:13.355Z,32.07
2022-07-31T11:46:16.353Z,31.79
2022-07-31T11:48:10.063Z,31.52
2022-07-31T11:48:27.194Z,31.18
2022-07-31T11:49:44.125Z,31.02
2022-07-31T11:50:33.824Z,31.02
2022-07-31T11:51:36.847Z,30.99
2022-07-31T11:52:39.590Z,31.51
2022-07-31T11:53:42.489Z,31.73
2022-07-31T11:54:45.056Z,32.06
2022-07-31T11:55:47.579Z,31.84
2022-07-31T11:56:50.495Z,31.96
2022-07-31T11:57:53.165Z,32.18
2022-07-31T11:58:55.736Z,32.09
2022-07-31T11:59:58.306Z,31.89
2022-07-31T12:01:01.790Z,31.82
2022-07-31T12:02:04.915Z,31.41
2022-07-31T12:03:07.519Z,30.84
2022-07-31T12:04:10.458Z,31.10
2022-07-31T12:05:13.108Z,31.21
2022-07-31T12:06:16.054Z,31.47
2022-07-31T12:07:18.724Z,31.49
2022-07-31T12:08:21.396Z,31.58
2022-07-31T12:10:00.754Z,31.77
2022-07-31T12:10:30.213Z,31.94
2022-07-31T12:11:32.784Z,32.34
2022-07-31T12:12:35.557Z,31.85
2022-07-31T12:13:38.093Z,32.21
2022-07-31T12:14:41.413Z,32.26
2022-07-31T12:15:44.080Z,31.75
2022-07-31T12:16:47.050Z,32.13
2022-07-31T12:17:49.651Z,31.71
2022-07-31T12:18:52.182Z,31.75
2022-07-31T12:19:57.837Z,31.58
2022-07-31T12:20:59.322Z,31.72
2022-07-31T12:22:01.932Z,31.48
2022-07-31T12:23:04.599Z,31.79
2022-07-31T12:24:07.167Z,32.09
2022-07-31T12:25:09.795Z,31.69
2022-07-31T12:26:13.122Z,31.76
2022-07-31T12:27:15.891Z,32.07
2022-07-31T12:28:18.459Z,32.20
2022-07-31T12:29:20.939Z,32.29
2022-07-31T12:30:29.675Z,32.22
2022-07-31T12:31:29.226Z,32.48
2022-07-31T12:32:31.757Z,32.29
2022-07-31T12:33:34.375Z,32.43
2022-07-31T12:34:37.343Z,32.14
2022-07-31T12:35:55.669Z,32.31
2022-07-31T12:36:44.684Z,32.16
2022-07-31T12:37:47.838Z,32.49
2022-07-31T12:38:50.474Z,31.75
2022-07-31T12:40:00.299Z,31.76
2022-07-31T12:40:57.971Z,32.13
2022-07-31T12:42:00.670Z,32.16
2022-07-31T12:43:03.507Z,31.98
2022-07-31T12:44:06.280Z,32.09
2022-07-31T12:45:19.168Z,31.81
2022-07-31T12:46:16.147Z,31.47
2022-07-31T12:47:18.629Z,31.69
2022-07-31T12:48:21.259Z,31.83
2022-07-31T12:49:23.955Z,32.02
2022-07-31T12:50:28.468Z,32.21
2022-07-31T12:51:45.330Z,32.09
2022-07-31T12:52:35.623Z,32.19
2022-07-31T12:53:38.295Z,32.36
2022-07-31T12:54:40.925Z,32.57
2022-07-31T12:55:43.525Z,32.08
2022-07-31T12:56:46.260Z,31.69
2022-07-31T12:57:50.989Z,31.96
2022-07-31T12:58:53.274Z,32.27
2022-07-31T12:59:55.798Z,31.84
2022-07-31T13:00:58.818Z,32.26
2022-07-31T13:02:01.544Z,32.10
2022-07-31T13:03:04.768Z,32.65
2022-07-31T13:04:07.728Z,32.87
2022-07-31T13:05:11.271Z,32.71
2022-07-31T13:06:14.621Z,32.32
2022-07-31T13:07:17.555Z,31.91
2022-07-31T13:08:21.148Z,32.03
2022-07-31T13:09:23.858Z,32.04
2022-07-31T13:10:31.980Z,31.92
2022-07-31T13:11:46.259Z,31.74
2022-07-31T13:12:37.496Z,31.96
2022-07-31T13:13:40.105Z,32.09
2022-07-31T13:14:42.636Z,32.14
2022-07-31T13:15:45.816Z,31.89
2022-07-31T13:16:48.734Z,31.96
2022-07-31T13:17:51.674Z,31.83
2022-07-31T13:18:54.233Z,31.98
2022-07-31T13:19:56.903Z,32.18
2022-07-31T13:20:59.693Z,32.37
2022-07-31T13:22:02.679Z,32.43
2022-07-31T13:23:05.447Z,32.55
2022-07-31T13:24:08.082Z,32.62
2022-07-31T13:25:11.312Z,32.68
2022-07-31T13:26:14.173Z,32.93
2022-07-31T13:27:16.812Z,32.98
2022-07-31T13:28:19.338Z,33.06
2022-07-31T13:29:22.258Z,33.05
2022-07-31T13:30:25.866Z,32.89
2022-07-31T13:31:28.411Z,33.18
2022-07-31T13:32:31.094Z,32.89
2022-07-31T13:33:33.852Z,32.27
2022-07-31T13:34:36.419Z,32.21